Dades meteomassalio
Diari Summary for Noviembre 3, 2017 Units:  English    Metric   Both
« Previous Day
Next Day »
Diari Semanal Mensual Anual Personalitzat
  Maxima: Minima: Mijana:
Temperatura: TemperatureC °F 5.0 °F 11.3 °F
Rosada: DewpointC °F 3.7 °F 7.6 °F
Humitat: Humidity % 47 % 79 %
Velocitat del vent: WindSpeedKMH mph 0.0 mph 1.3 mph
Racha vent: WindSpeedGustKMH mph - -
Vent:- - WSW
Pressio: PressurehPa in 1014.1 in -
Pluja: 0.3 in    
Historical Graphs
 
 
Tabular Data for Noviembre 3, 2017
Time Temperature Dew Point Pressure Wind Wind Speed Wind Gust Humidity Rainfall Rate (Hourly) solar Conditions
TemperatureC °F DewpointC °F PressurehPa in Calm     Humidity % HourlyPrecipMM in SolarRadiationWatts/m^2 W/m2 Conditions
00:00 7.8 °F 5.7 °F 1019.9 in Calm     87 % 0.0 in 0.0 W/m2 CLR
00:05 7.8 °F 5.7 °F 1019.9 in Calm     87 % 0.0 in 0.0 W/m2 CLR
00:10 7.2 °F 5.2 °F 1019.9 in Calm     87 % 0.0 in 0.0 W/m2 CLR
00:15 7.2 °F 5.4 °F 1019.9 in Calm     88 % 0.0 in 0.0 W/m2 CLR
00:20 7.2 °F 5.4 °F 1019.9 in Calm     88 % 0.0 in 0.0 W/m2 CLR
00:25 7.2 °F 5.4 °F 1019.9 in Calm     88 % 0.0 in 0.0 W/m2 CLR
00:30 7.2 °F 5.6 °F 1019.9 in Calm     89 % 0.0 in 0.0 W/m2 CLR
00:35 7.2 °F 5.4 °F 1019.9 in Calm     88 % 0.0 in 0.0 W/m2 CLR
00:40 7.8 °F 5.9 °F 1019.9 in Calm     88 % 0.0 in 0.0 W/m2 CLR
00:45 7.2 °F 5.4 °F 1019.5 in Calm     88 % 0.0 in 0.0 W/m2 CLR
00:51 7.2 °F 5.6 °F 1019.5 in Calm     89 % 0.0 in 0.0 W/m2 CLR
00:56 7.2 °F 5.6 °F 1019.5 in Calm     89 % 0.0 in 0.0 W/m2 CLR
01:01 6.7 °F 5.0 °F 1019.5 in Calm     89 % 0.0 in 0.0 W/m2 CLR
01:06 6.7 °F 5.0 °F 1019.5 in Calm     89 % 0.0 in 0.0 W/m2 CLR
01:11 6.1 °F 4.4 °F 1019.5 in Calm     89 % 0.0 in 0.0 W/m2 CLR
01:16 6.1 °F 4.4 °F 1019.5 in Calm     89 % 0.0 in 0.0 W/m2 CLR
01:21 6.7 °F 5.0 °F 1019.5 in Calm     89 % 0.0 in 0.0 W/m2 CLR
01:26 6.7 °F 5.0 °F 1019.5 in Calm     89 % 0.0 in 0.0 W/m2 CLR
01:31 6.7 °F 5.2 °F 1019.5 in Calm     90 % 0.0 in 0.0 W/m2 CLR
01:36 6.7 °F 5.2 °F 1019.5 in Calm     90 % 0.0 in 0.0 W/m2 CLR
01:41 6.7 °F 5.2 °F 1019.5 in Calm     90 % 0.0 in 0.0 W/m2 CLR
01:46 6.1 °F 4.6 °F 1019.2 in Calm     90 % 0.0 in 0.0 W/m2 CLR
01:51 6.1 °F 4.6 °F 1019.2 in Calm     90 % 0.0 in 0.0 W/m2 CLR
01:56 6.1 °F 4.6 °F 1019.2 in Calm     90 % 0.0 in 0.0 W/m2 CLR
02:01 6.1 °F 4.6 °F 1019.2 in Calm     90 % 0.0 in 0.0 W/m2 CLR
02:06 6.1 °F 4.6 °F 1019.2 in Calm     90 % 0.0 in 0.0 W/m2 CLR
02:11 5.6 °F 4.1 °F 1018.8 in Calm     90 % 0.0 in 0.0 W/m2 CLR
02:16 5.6 °F 4.1 °F 1019.2 in Calm     90 % 0.0 in 0.0 W/m2 CLR
02:21 5.6 °F 4.1 °F 1018.8 in Calm     90 % 0.0 in 0.0 W/m2 CLR
02:26 6.1 °F 4.6 °F 1018.8 in Calm     90 % 0.0 in 0.0 W/m2 CLR
02:31 5.6 °F 4.1 °F 1018.8 in Calm     90 % 0.0 in 0.0 W/m2 CLR
02:36 5.6 °F 4.1 °F 1018.8 in Calm     90 % 0.0 in 0.0 W/m2 CLR
02:41 5.6 °F 4.1 °F 1018.8 in Calm     90 % 0.0 in 0.0 W/m2 CLR
02:46 5.6 °F 4.1 °F 1018.8 in Calm     90 % 0.0 in 0.0 W/m2 CLR
02:51 5.6 °F 4.2 °F 1018.8 in Calm     91 % 0.0 in 0.0 W/m2 CLR
02:56 5.6 °F 4.2 °F 1018.5 in Calm     91 % 0.0 in 0.0 W/m2 CLR
03:01 5.6 °F 4.2 °F 1018.5 in Calm     91 % 0.0 in 0.0 W/m2 CLR
03:06 5.0 °F 3.7 °F 1018.5 in Calm     91 % 0.0 in 0.0 W/m2 CLR
03:11 5.0 °F 3.7 °F 1018.5 in Calm     91 % 0.0 in 0.0 W/m2 CLR
03:16 5.6 °F 4.2 °F 1018.2 in Calm     91 % 0.0 in 0.0 W/m2 CLR
03:21 5.6 °F 4.2 °F 1018.5 in Calm     91 % 0.0 in 0.0 W/m2 CLR
03:26 6.1 °F 4.8 °F 1018.5 in Calm     91 % 0.0 in 0.0 W/m2 CLR
03:31 6.1 °F 4.8 °F 1018.5 in Calm     91 % 0.0 in 0.0 W/m2 CLR
03:36 5.6 °F 4.1 °F 1018.2 in Calm     90 % 0.0 in 0.0 W/m2 CLR
03:41 6.1 °F 4.8 °F 1018.5 in Calm     91 % 0.0 in 0.0 W/m2 CLR
03:46 5.6 °F 4.2 °F 1018.5 in Calm     91 % 0.0 in 0.0 W/m2 CLR
03:51 5.6 °F 4.2 °F 1018.2 in Calm     91 % 0.0 in 0.0 W/m2 CLR
03:56 5.6 °F 4.2 °F 1018.2 in Calm     91 % 0.0 in 0.0 W/m2 CLR
04:01 5.6 °F 4.2 °F 1018.2 in Calm     91 % 0.0 in 0.0 W/m2 CLR
04:06 5.6 °F 4.3 °F 1017.8 in Calm     92 % 0.0 in 0.0 W/m2 CLR
04:11 5.6 °F 4.3 °F 1018.2 in Calm     92 % 0.0 in 0.0 W/m2 CLR
04:16 5.6 °F 4.3 °F 1018.2 in Calm     92 % 0.0 in 0.0 W/m2 CLR
04:21 5.6 °F 4.3 °F 1017.8 in Calm     92 % 0.0 in 0.0 W/m2 CLR
04:22 5.6 °F 4.2 °F 1017.8 in Calm     91 % 0.0 in 0.0 W/m2 CLR
04:26 5.6 °F 4.2 °F 1017.8 in Calm     91 % 0.0 in 0.0 W/m2 CLR
04:31 5.6 °F 4.2 °F 1017.8 in Calm     91 % 0.0 in 0.0 W/m2 CLR
04:33 5.6 °F 4.2 °F 1017.8 in Calm     91 % 0.0 in 0.0 W/m2 CLR
04:38 5.6 °F 4.2 °F 1017.8 in Calm     91 % 0.0 in 0.0 W/m2 CLR
04:43 5.6 °F 4.2 °F 1017.8 in Calm     91 % 0.0 in 0.0 W/m2 CLR
04:48 5.6 °F 4.2 °F 1017.8 in Calm     91 % 0.0 in 0.0 W/m2 CLR
04:53 6.1 °F 4.8 °F 1017.8 in Calm     91 % 0.0 in 0.0 W/m2 CLR
04:58 6.1 °F 4.9 °F 1017.8 in Calm     92 % 0.0 in 0.0 W/m2 CLR
05:03 6.1 °F 4.9 °F 1017.8 in Calm     92 % 0.0 in 0.0 W/m2 CLR
05:08 5.6 °F 4.3 °F 1017.8 in Calm     92 % 0.0 in 0.0 W/m2 CLR
05:13 5.6 °F 4.3 °F 1017.8 in Calm     92 % 0.0 in 0.0 W/m2 CLR
05:18 5.6 °F 4.3 °F 1017.8 in Calm     92 % 0.0 in 0.0 W/m2 CLR
05:23 5.6 °F 4.3 °F 1017.5 in Calm     92 % 0.0 in 0.0 W/m2 CLR
05:28 5.0 °F 3.8 °F 1017.5 in Calm     92 % 0.0 in 0.0 W/m2 CLR
05:29 5.0 °F 3.8 °F 1017.5 in Calm     92 % 0.0 in 0.0 W/m2 CLR
05:34 5.0 °F 3.8 °F 1017.5 in Calm     92 % 0.0 in 0.0 W/m2 CLR
05:39 5.0 °F 3.8 °F 1017.5 in Calm     92 % 0.0 in 0.0 W/m2 CLR
05:44 5.0 °F 3.8 °F 1017.5 in Calm     92 % 0.0 in 0.0 W/m2 CLR
05:49 5.0 °F 3.8 °F 1017.2 in Calm     92 % 0.0 in 0.0 W/m2 CLR
05:54 5.6 °F 4.2 °F 1017.5 in Calm     91 % 0.0 in 0.0 W/m2 CLR
05:59 5.6 °F 4.3 °F 1017.2 in Calm     92 % 0.0 in 0.0 W/m2 CLR
06:04 5.6 °F 4.3 °F 1017.5 in Calm     92 % 0.0 in 0.0 W/m2 CLR
06:09 5.6 °F 4.3 °F 1017.2 in Calm     92 % 0.0 in 0.0 W/m2 CLR
06:14 5.6 °F 4.3 °F 1017.2 in Calm     92 % 0.0 in 0.0 W/m2 CLR
06:19 5.6 °F 4.3 °F 1017.2 in Calm     92 % 0.0 in 0.0 W/m2 CLR
06:24 5.6 °F 4.3 °F 1017.2 in Calm     92 % 0.0 in 0.0 W/m2 CLR
06:29 5.6 °F 4.3 °F 1016.8 in Calm     92 % 0.0 in 0.0 W/m2 CLR
06:34 5.6 °F 4.3 °F 1017.2 in Calm     92 % 0.0 in 0.0 W/m2 CLR
06:39 5.6 °F 4.3 °F 1017.2 in Calm     92 % 0.0 in 0.0 W/m2 CLR
06:44 5.6 °F 4.3 °F 1017.2 in Calm     92 % 0.0 in 0.0 W/m2 CLR
06:49 5.6 °F 4.3 °F 1017.2 in Calm     92 % 0.0 in 0.0 W/m2 CLR
06:54 5.6 °F 4.3 °F 1017.2 in Calm     92 % 0.0 in 0.0 W/m2 CLR
06:59 5.6 °F 4.3 °F 1016.8 in Calm     92 % 0.0 in 0.0 W/m2 CLR
07:04 5.6 °F 4.3 °F 1017.2 in Calm     92 % 0.0 in 0.0 W/m2 CLR
07:09 5.0 °F 3.8 °F 1017.2 in Calm     92 % 0.0 in 0.0 W/m2 CLR
07:14 5.0 °F 3.8 °F 1017.2 in Calm     92 % 0.0 in 0.0 W/m2 CLR
07:19 5.0 °F 3.8 °F 1017.2 in Calm     92 % 0.0 in 0.0 W/m2 CLR
07:24 5.0 °F 3.8 °F 1017.2 in Calm     92 % 0.0 in 5.0 W/m2 OVC
07:29 5.0 °F 3.8 °F 1017.2 in Calm     92 % 0.0 in 9.0 W/m2 OVC
07:34 5.0 °F 3.8 °F 1017.2 in Calm     92 % 0.0 in 11.0 W/m2 OVC
07:39 5.0 °F 3.8 °F 1017.2 in Calm     92 % 0.0 in 11.0 W/m2 OVC
07:44 5.0 °F 3.8 °F 1017.2 in Calm     92 % 0.0 in 11.0 W/m2 OVC
07:49 5.0 °F 3.8 °F 1017.2 in Calm     92 % 0.0 in 12.0 W/m2 OVC
07:54 5.0 °F 3.8 °F 1016.8 in Calm     92 % 0.0 in 12.0 W/m2 OVC
07:59 5.0 °F 3.8 °F 1017.2 in Calm     92 % 0.0 in 18.0 W/m2 OVC
08:04 5.0 °F 3.8 °F 1016.8 in Calm     92 % 0.0 in 26.0 W/m2 OVC
08:09 5.6 °F 4.3 °F 1017.2 in Calm     92 % 0.0 in 32.0 W/m2 OVC
08:14 5.6 °F 4.3 °F 1017.2 in Calm     92 % 0.0 in 39.0 W/m2 OVC
08:19 5.6 °F 4.3 °F 1017.5 in Calm     92 % 0.0 in 42.0 W/m2 OVC
08:24 5.6 °F 4.5 °F 1017.5 in Calm     93 % 0.0 in 33.0 W/m2 OVC
08:29 5.6 °F 4.3 °F 1017.5 in Calm     92 % 0.0 in 37.0 W/m2 OVC
08:34 5.6 °F 4.3 °F 1017.5 in Calm     92 % 0.0 in 44.0 W/m2 OVC
08:39 5.6 °F 4.3 °F 1017.5 in Calm     92 % 0.0 in 58.0 W/m2 BKN
08:44 5.6 °F 4.5 °F 1017.5 in Calm     93 % 0.0 in 60.0 W/m2 SCT
08:49 5.6 °F 4.5 °F 1017.8 in Calm     93 % 0.0 in 67.0 W/m2 SCT
08:54 6.1 °F 4.9 °F 1017.5 in Calm     92 % 0.0 in 130.0 W/m2 FEW
08:59 6.1 °F 4.9 °F 1017.5 in Calm     92 % 0.0 in 93.0 W/m2 CLR
09:04 6.7 °F 5.4 °F 1017.5 in Calm     92 % 0.0 in 109.0 W/m2 CLR
09:09 6.7 °F 5.4 °F 1017.5 in Calm     92 % 0.0 in 195.0 W/m2 CLR
09:10 7.2 °F 6.0 °F 1017.5 in Calm     92 % 0.0 in 195.0 W/m2 CLR
09:15 7.2 °F 6.0 °F 1017.8 in Calm     92 % 0.0 in 163.0 W/m2 CLR
09:20 7.8 °F 6.4 °F 1017.8 in Calm     91 % 0.0 in 197.0 W/m2 CLR
09:25 7.8 °F 6.4 °F 1017.8 in Calm     91 % 0.0 in 220.0 W/m2 CLR
09:30 8.3 °F 6.8 °F 1017.8 in Calm     90 % 0.0 in 209.0 W/m2 CLR
09:35 8.9 °F 7.3 °F 1017.8 in Calm     90 % 0.0 in 234.0 W/m2 CLR
09:40 9.4 °F 7.6 °F 1017.5 in Calm     88 % 0.0 in 279.0 W/m2 CLR
09:45 9.4 °F 7.4 °F 1017.8 in Calm     87 % 0.0 in 308.0 W/m2 CLR
09:50 10.0 °F 7.9 °F 1017.8 in Calm     87 % 0.0 in 327.0 W/m2 CLR
09:55 10.6 °F 8.1 °F 1017.8 in Calm     85 % 0.0 in 352.0 W/m2 CLR
10:00 10.6 °F 7.9 °F 1017.8 in Calm     84 % 0.3 in 132.0 W/m2 RA
10:05 10.6 °F 7.6 °F 1017.8 in Calm     82 % 0.3 in 144.0 W/m2 CLR
10:10 11.1 °F 7.9 °F 1017.8 in Calm     81 % 0.3 in 155.0 W/m2 CLR
10:16 11.1 °F 7.9 °F 1017.5 in Calm     81 % 0.3 in 178.0 W/m2 CLR
10:21 11.7 °F 8.7 °F 1017.8 in Calm     82 % 0.3 in 190.0 W/m2 CLR
10:26 11.7 °F 8.7 °F 1017.8 in Calm     82 % 0.3 in 169.0 W/m2 CLR
10:31 12.2 °F 9.2 °F 1017.8 in Calm     82 % 0.3 in 172.0 W/m2 CLR
10:36 12.2 °F 9.2 °F 1017.8 in Calm     82 % 0.3 in 186.0 W/m2 CLR
10:41 12.8 °F 9.6 °F 1017.8 in Calm     81 % 0.3 in 188.0 W/m2 CLR
10:46 12.8 °F 9.6 °F 1017.8 in Calm     81 % 0.3 in 171.0 W/m2 CLR
10:51 12.8 °F 9.6 °F 1017.8 in Calm     81 % 0.3 in 230.0 W/m2 CLR
10:56 13.3 °F 10.2 °F 1017.8 in Calm     81 % 0.3 in 241.0 W/m2 CLR
11:01 13.3 °F 10.2 °F 1017.8 in Calm     81 % 0.0 in 202.0 W/m2 CLR
11:06 13.9 °F 10.5 °F 1017.8 in Calm     80 % 0.0 in 202.0 W/m2 CLR
11:11 13.9 °F 10.5 °F 1017.8 in Calm     80 % 0.0 in 183.0 W/m2 CLR
11:16 13.9 °F 10.3 °F 1017.5 in Calm     79 % 0.0 in 236.0 W/m2 CLR
11:21 14.4 °F 10.8 °F 1017.5 in Calm     79 % 0.0 in 309.0 W/m2 CLR
11:26 14.4 °F 10.7 °F 1017.5 in Calm     78 % 0.0 in 443.0 W/m2 CLR
11:31 15.0 °F 10.8 °F 1017.5 in Calm     76 % 0.0 in 262.0 W/m2 CLR
11:36 15.0 °F 10.4 °F 1017.5 in Calm     74 % 0.0 in 316.0 W/m2 CLR
11:38 15.0 °F 10.6 °F 1017.5 in Calm     75 % 0.0 in 640.0 W/m2 CLR
11:43 16.1 °F 11.5 °F 1017.5 in Calm     74 % 0.0 in 677.0 W/m2 CLR
11:48 16.1 °F 11.3 °F 1017.2 in Calm     73 % 0.0 in 294.0 W/m2 CLR
11:53 16.7 °F 11.4 °F 1017.2 in Calm     71 % 0.0 in 267.0 W/m2 CLR
11:58 16.7 °F 11.2 °F 1017.2 in Calm     70 % 0.0 in 308.0 W/m2 CLR
12:03 16.7 °F 11.2 °F 1017.2 in West 1.6 mph 1.6 mph 70 % 0.0 in 381.0 W/m2 CLR
12:08 17.2 °F 11.5 °F 1017.2 in Calm     69 % 0.0 in 589.0 W/m2 CLR
12:13 17.2 °F 11.3 °F 1016.8 in Calm     68 % 0.0 in 649.0 W/m2 CLR
12:18 17.8 °F 11.6 °F 1016.8 in Calm     67 % 0.0 in 341.0 W/m2 CLR
12:23 17.8 °F 11.3 °F 1016.8 in Calm     66 % 0.0 in 448.0 W/m2 CLR
12:28 17.8 °F 11.6 °F 1016.8 in NW 7.4 mph 7.4 mph 67 % 0.0 in 227.0 W/m2 CLR
12:33 17.8 °F 11.6 °F 1016.5 in Calm     67 % 0.0 in 555.0 W/m2 CLR
12:38 18.3 °F 11.9 °F 1016.5 in NNW 3.7 mph   66 % 0.0 in 591.0 W/m2 CLR
12:48 18.9 °F 12.2 °F 1016.5 in NNW 6.4 mph 6.4 mph 65 % 0.0 in 515.0 W/m2 CLR
12:53 18.9 °F 12.2 °F 1016.1 in NW 5.6 mph 5.6 mph 65 % 0.0 in 473.0 W/m2 CLR
12:58 18.9 °F 11.9 °F 1016.1 in NW 6.4 mph 6.4 mph 64 % 0.0 in 385.0 W/m2 CLR
13:03 18.9 °F 11.7 °F 1016.1 in Calm     63 % 0.0 in 243.0 W/m2 CLR
13:08 18.9 °F 11.9 °F 1016.1 in Calm     64 % 0.0 in 283.0 W/m2 CLR
13:13 18.9 °F 11.7 °F 1015.8 in Calm     63 % 0.0 in 364.0 W/m2 CLR
13:18 18.9 °F 11.7 °F 1015.8 in NNW 5.6 mph   63 % 0.0 in 295.0 W/m2 CLR
13:23 18.9 °F 11.7 °F 1015.8 in Calm     63 % 0.0 in 545.0 W/m2 CLR
13:28 19.4 °F 12.2 °F 1015.8 in NW 5.6 mph 5.6 mph 63 % 0.0 in 570.0 W/m2 CLR
13:33 20.0 °F 12.2 °F 1015.8 in NNW 3.7 mph 3.7 mph 61 % 0.0 in 557.0 W/m2 CLR
13:38 20.0 °F 12.0 °F 1015.5 in NW 6.4 mph 6.4 mph 60 % 0.0 in 311.0 W/m2 CLR
13:48 20.0 °F 11.7 °F 1015.5 in NW 7.4 mph 7.4 mph 59 % 0.0 in 557.0 W/m2 CLR
13:53 20.6 °F 12.3 °F 1015.1 in WNW 6.4 mph 6.4 mph 59 % 0.0 in 510.0 W/m2 CLR
13:58 20.6 °F 11.7 °F 1015.1 in WNW 5.6 mph 5.6 mph 57 % 0.0 in 373.0 W/m2 CLR
14:03 20.6 °F 11.4 °F 1015.1 in NW 6.4 mph 6.4 mph 56 % 0.0 in 380.0 W/m2 CLR
14:08 21.1 °F 11.4 °F 1015.1 in WNW 5.6 mph 5.6 mph 54 % 0.0 in 526.0 W/m2 CLR
14:13 21.7 °F 11.7 °F 1014.8 in Calm     53 % 0.0 in 496.0 W/m2 CLR
14:18 21.7 °F 11.4 °F 1014.8 in Calm     52 % 0.0 in 536.0 W/m2 CLR
14:23 22.2 °F 11.3 °F 1014.8 in NNW 7.4 mph 7.4 mph 50 % 0.0 in 506.0 W/m2 CLR
14:28 22.2 °F 11.6 °F 1014.4 in North 9.3 mph 9.3 mph 51 % 0.0 in 490.0 W/m2 CLR
14:33 22.8 °F 11.8 °F 1014.4 in NNW 5.6 mph 5.6 mph 50 % 0.0 in 482.0 W/m2 CLR
14:38 22.8 °F 11.8 °F 1014.4 in NW 13.0 mph   50 % 0.0 in 464.0 W/m2 CLR
14:43 22.8 °F 11.2 °F 1014.4 in North 7.4 mph 7.4 mph 48 % 0.0 in 443.0 W/m2 CLR
14:48 22.2 °F 10.4 °F 1014.4 in NW 14.8 mph 14.8 mph 47 % 0.0 in 431.0 W/m2 CLR
14:53 22.2 °F 10.4 °F 1014.4 in NNW 16.7 mph 16.7 mph 47 % 0.0 in 415.0 W/m2 CLR
14:58 22.2 °F 10.7 °F 1014.4 in NNW 16.7 mph 16.7 mph 48 % 0.0 in 408.0 W/m2 CLR
15:03 22.2 °F 11.0 °F 1014.4 in North 14.8 mph 14.8 mph 49 % 0.0 in 378.0 W/m2 CLR
15:08 21.7 °F 10.2 °F 1014.4 in NW 13.0 mph 13.0 mph 48 % 0.0 in 227.0 W/m2 CLR
15:13 21.7 °F 10.5 °F 1014.1 in NNW 9.3 mph 9.3 mph 49 % 0.0 in 176.0 W/m2 CLR
15:18 21.7 °F 10.8 °F 1014.1 in NW 5.6 mph 5.6 mph 50 % 0.0 in 294.0 W/m2 CLR
15:23 22.2 °F 11.3 °F 1014.4 in NW 8.0 mph 8.0 mph 50 % 0.0 in 367.0 W/m2 CLR
15:28 22.2 °F 11.0 °F 1014.4 in NNW 14.8 mph 14.8 mph 49 % 0.0 in 366.0 W/m2 CLR
15:33 22.2 °F 11.0 °F 1014.1 in Calm     49 % 0.0 in 332.0 W/m2 CLR
15:38 22.2 °F 11.0 °F 1014.1 in NW 11.1 mph 11.1 mph 49 % 0.0 in 338.0 W/m2 CLR
15:43 22.2 °F 11.0 °F 1014.1 in Calm     49 % 0.0 in 318.0 W/m2 CLR
15:48 22.2 °F 10.7 °F 1014.4 in NNW 5.6 mph 5.6 mph 48 % 0.0 in 297.0 W/m2 CLR
15:53 22.2 °F 10.7 °F 1014.4 in NNW 16.7 mph 16.7 mph 48 % 0.0 in 121.0 W/m2 CLR
15:58 21.7 °F 10.5 °F 1014.4 in NW 9.3 mph 9.3 mph 49 % 0.0 in 279.0 W/m2 CLR
16:03 21.7 °F 10.8 °F 1014.4 in Calm     50 % 0.0 in 269.0 W/m2 CLR
16:08 21.7 °F 10.8 °F 1014.4 in NNE 9.7 mph 9.7 mph 50 % 0.0 in 255.0 W/m2 CLR
16:13 21.7 °F 11.1 °F 1014.4 in North 11.1 mph 11.1 mph 51 % 0.0 in 211.0 W/m2 CLR
16:18 21.7 °F 11.7 °F 1014.4 in Calm   0.5 mph 53 % 0.0 in 153.0 W/m2 CLR
16:23 21.1 °F 11.4 °F 1014.4 in NE 13.0 mph 13.0 mph 54 % 0.0 in 56.0 W/m2 CLR
16:28 20.6 °F 11.2 °F 1014.4 in NNE 5.6 mph 5.6 mph 55 % 0.0 in 72.0 W/m2 FEW
16:33 20.6 °F 11.4 °F 1014.4 in Calm   3.9 mph 56 % 0.0 in 65.0 W/m2 SCT
16:38 20.0 °F 11.2 °F 1014.4 in NNE 3.2 mph 3.2 mph 57 % 0.0 in 63.0 W/m2 SCT
16:43 20.0 °F 11.2 °F 1014.1 in Calm     57 % 0.0 in 84.0 W/m2 FEW
16:48 19.4 °F 10.7 °F 1014.1 in NNE 7.4 mph 7.4 mph 57 % 0.0 in 84.0 W/m2 FEW
16:49 19.4 °F 10.7 °F 1014.1 in NNE 3.7 mph 3.7 mph 57 % 0.0 in 84.0 W/m2 FEW
16:54 20.0 °F 11.5 °F 1014.1 in NNE 5.6 mph 5.6 mph 58 % 0.0 in 79.0 W/m2 FEW
16:59 20.0 °F 12.0 °F 1014.1 in NNE 7.4 mph 7.4 mph 60 % 0.0 in 95.0 W/m2 CLR
17:04 19.4 °F 11.9 °F 1014.4 in NNE 13.0 mph 13.0 mph 62 % 0.0 in 63.0 W/m2 SCT
17:09 19.4 °F 12.2 °F 1014.4 in NNE 8.0 mph 8.0 mph 63 % 0.0 in 53.0 W/m2 SCT
17:14 19.4 °F 12.4 °F 1014.1 in NNE 8.0 mph 8.0 mph 64 % 0.0 in 60.0 W/m2 SCT
17:19 18.9 °F 12.4 °F 1014.1 in NNE 5.6 mph 5.6 mph 66 % 0.0 in 49.0 W/m2 SCT
17:24 18.9 °F 12.4 °F 1014.1 in Calm     66 % 0.0 in 47.0 W/m2 SCT
17:29 18.9 °F 12.6 °F 1014.4 in Calm     67 % 0.0 in 28.0 W/m2 BKN
17:34 18.3 °F 12.3 °F 1014.4 in NE 3.7 mph 3.7 mph 68 % 0.0 in 16.0 W/m2 BKN
17:39 17.8 °F 12.0 °F 1014.4 in Calm     69 % 0.0 in 11.0 W/m2 BKN
17:44 17.2 °F 11.7 °F 1014.4 in NNE 3.7 mph   70 % 0.0 in 9.0 W/m2 BKN
17:49 16.7 °F 11.4 °F 1014.4 in Calm     71 % 0.0 in 5.0 W/m2 OVC
17:54 16.1 °F 11.1 °F 1014.4 in Calm     72 % 0.0 in 0.0 W/m2 OVC
17:59 15.6 °F 10.7 °F 1014.4 in Calm     73 % 0.0 in 0.0 W/m2 OVC
18:04 15.0 °F 10.2 °F 1014.4 in Calm     73 % 0.0 in 0.0 W/m2 CLR
18:09 15.0 °F 10.4 °F 1014.4 in Calm     74 % 0.0 in 0.0 W/m2 CLR
18:14 14.4 °F 9.9 °F 1014.8 in Calm     74 % 0.0 in 0.0 W/m2 CLR
18:19 13.9 °F 9.3 °F 1014.8 in Calm     74 % 0.0 in 0.0 W/m2 CLR
18:24 13.9 °F 9.6 °F 1014.8 in Calm     75 % 0.0 in 0.0 W/m2 CLR
18:29 13.3 °F 9.0 °F 1014.8 in Calm     75 % 0.0 in 0.0 W/m2 CLR
18:34 13.3 °F 9.2 °F 1015.1 in Calm     76 % 0.0 in 0.0 W/m2 CLR
18:39 13.3 °F 9.2 °F 1015.1 in Calm     76 % 0.0 in 0.0 W/m2 CLR
18:44 12.8 °F 8.8 °F 1015.1 in Calm     77 % 0.0 in 0.0 W/m2 CLR
18:49 12.8 °F 8.8 °F 1015.1 in Calm     77 % 0.0 in 0.0 W/m2 CLR
18:54 12.8 °F 9.1 °F 1015.1 in Calm     78 % 0.0 in 0.0 W/m2 CLR
18:59 12.2 °F 8.5 °F 1015.1 in Calm     78 % 0.0 in 0.0 W/m2 CLR
19:04 12.2 °F 8.7 °F 1015.1 in Calm     79 % 0.0 in 0.0 W/m2 CLR
19:09 12.2 °F 8.5 °F 1015.5 in Calm     78 % 0.0 in 0.0 W/m2 CLR
19:14 12.2 °F 8.5 °F 1015.5 in Calm     78 % 0.0 in 0.0 W/m2 CLR
19:19 12.2 °F 8.9 °F 1015.5 in Calm     80 % 0.0 in 0.0 W/m2 CLR
19:24 11.7 °F 8.5 °F 1015.5 in Calm     81 % 0.0 in 0.0 W/m2 CLR
19:29 11.7 °F 8.7 °F 1015.5 in Calm     82 % 0.0 in 0.0 W/m2 CLR
19:34 11.7 °F 8.5 °F 1015.5 in Calm     81 % 0.0 in 0.0 W/m2 CLR
19:39 11.7 °F 8.3 °F 1015.5 in Calm     80 % 0.0 in 0.0 W/m2 CLR
19:44 11.7 °F 8.2 °F 1015.5 in Calm     79 % 0.0 in 0.0 W/m2 CLR
19:49 12.2 °F 8.9 °F 1015.5 in Calm     80 % 0.0 in 0.0 W/m2 CLR
19:54 12.8 °F 9.6 °F 1015.5 in Calm     81 % 0.0 in 0.0 W/m2 CLR
19:59 12.8 °F 9.8 °F 1015.5 in Calm     82 % 0.0 in 0.0 W/m2 CLR
20:04 12.2 °F 9.2 °F 1015.5 in Calm     82 % 0.0 in 0.0 W/m2 CLR
20:09 12.2 °F 9.1 °F 1015.5 in Calm     81 % 0.0 in 0.0 W/m2 CLR
20:14 12.2 °F 9.1 °F 1015.5 in Calm     81 % 0.0 in 0.0 W/m2 CLR
20:19 11.7 °F 8.5 °F 1015.5 in Calm     81 % 0.0 in 0.0 W/m2 CLR
20:24 11.7 °F 8.7 °F 1015.5 in Calm     82 % 0.0 in 0.0 W/m2 CLR
20:29 11.1 °F 8.2 °F 1015.8 in Calm     82 % 0.0 in 0.0 W/m2 CLR
20:34 11.1 °F 8.3 °F 1015.5 in Calm     83 % 0.0 in 0.0 W/m2 CLR
20:40 10.6 °F 7.8 °F 1015.5 in Calm     83 % 0.0 in 0.0 W/m2 CLR
20:45 10.6 °F 7.8 °F 1015.8 in Calm     83 % 0.0 in 0.0 W/m2 CLR
20:50 10.6 °F 7.8 °F 1015.8 in Calm     83 % 0.0 in 0.0 W/m2 CLR
20:55 10.6 °F 7.8 °F 1015.8 in Calm     83 % 0.0 in 0.0 W/m2 CLR
21:00 10.6 °F 7.8 °F 1015.8 in Calm     83 % 0.0 in 0.0 W/m2 CLR
21:05 10.6 °F 7.9 °F 1015.8 in Calm     84 % 0.0 in 0.0 W/m2 CLR
21:10 11.1 °F 8.7 °F 1015.8 in Calm     85 % 0.0 in 0.0 W/m2 CLR
21:15 11.1 °F 8.7 °F 1015.8 in Calm     85 % 0.0 in 0.0 W/m2 CLR
21:20 11.1 °F 8.5 °F 1015.8 in Calm     84 % 0.0 in 0.0 W/m2 CLR
21:25 11.1 °F 8.5 °F 1015.8 in Calm     84 % 0.0 in 0.0 W/m2 CLR
21:30 11.1 °F 8.5 °F 1015.8 in Calm     84 % 0.0 in 0.0 W/m2 CLR
21:35 10.6 °F 7.9 °F 1015.8 in Calm     84 % 0.0 in 0.0 W/m2 CLR
21:40 10.6 °F 7.8 °F 1015.8 in Calm     83 % 0.0 in 0.0 W/m2 CLR
21:45 10.6 °F 7.8 °F 1015.8 in Calm     83 % 0.0 in 0.0 W/m2 CLR
21:50 10.0 °F 7.2 °F 1015.8 in Calm     83 % 0.0 in 0.0 W/m2 CLR
21:55 10.0 °F 7.4 °F 1016.1 in Calm     84 % 0.0 in 0.0 W/m2 CLR
22:00 10.0 °F 7.4 °F 1016.1 in Calm     84 % 0.0 in 0.0 W/m2 CLR
22:05 9.4 °F 7.1 °F 1016.1 in Calm     85 % 0.0 in 0.0 W/m2 CLR
22:10 9.4 °F 6.9 °F 1016.1 in Calm     84 % 0.0 in 0.0 W/m2 CLR
22:15 9.4 °F 6.9 °F 1016.1 in Calm     84 % 0.0 in 0.0 W/m2 CLR
22:20 9.4 °F 6.9 °F 1016.1 in Calm     84 % 0.0 in 0.0 W/m2 CLR
22:25 9.4 °F 6.9 °F 1016.1 in Calm     84 % 0.0 in 0.0 W/m2 CLR
22:30 9.4 °F 6.9 °F 1016.1 in Calm     84 % 0.0 in 0.0 W/m2 CLR
22:35 9.4 °F 7.1 °F 1016.1 in Calm     85 % 0.0 in 0.0 W/m2 CLR
22:40 9.4 °F 7.1 °F 1016.1 in Calm     85 % 0.0 in 0.0 W/m2 CLR
22:45 9.4 °F 7.1 °F 1016.1 in Calm     85 % 0.0 in 0.0 W/m2 CLR
22:50 9.4 °F 6.9 °F 1016.1 in Calm     84 % 0.0 in 0.0 W/m2 CLR
22:55 9.4 °F 6.9 °F 1016.1 in Calm     84 % 0.0 in 0.0 W/m2 CLR
23:00 9.4 °F 6.9 °F 1016.1 in Calm     84 % 0.0 in 0.0 W/m2 CLR
23:05 9.4 °F 6.9 °F 1015.8 in Calm     84 % 0.0 in 0.0 W/m2 CLR
23:10 9.4 °F 7.1 °F 1015.8 in Calm     85 % 0.0 in 0.0 W/m2 CLR
23:15 8.9 °F 6.5 °F 1015.8 in Calm     85 % 0.0 in 0.0 W/m2 CLR
23:20 8.9 °F 6.5 °F 1015.8 in Calm     85 % 0.0 in 0.0 W/m2 CLR
23:25 8.9 °F 6.5 °F 1015.8 in Calm     85 % 0.0 in 0.0 W/m2 CLR
23:30 8.9 °F 6.5 °F 1015.8 in Calm     85 % 0.0 in 0.0 W/m2 CLR
23:35 8.9 °F 6.3 °F 1015.8 in Calm     84 % 0.0 in 0.0 W/m2 CLR
23:40 8.9 °F 6.5 °F 1015.8 in Calm     85 % 0.0 in 0.0 W/m2 CLR
23:45 8.9 °F 6.5 °F 1015.5 in Calm     85 % 0.0 in 0.0 W/m2 CLR
23:50 8.9 °F 6.5 °F 1015.5 in Calm     85 % 0.0 in 0.0 W/m2 CLR
23:55 8.9 °F 6.5 °F 1015.5 in Calm     85 % 0.0 in 0.0 W/m2 CLR
Lo Temps de Massalio
Compliments of Weather Underground - 1.25 mb